EST,Max TemperatureF,Mean TemperatureF,Min TemperatureF,Max Dew PointF,MeanDew PointF,Min DewpointF,Max Humidity, Mean Humidity, Min Humidity, Max Sea Level PressureIn, Mean Sea Level PressureIn, Min Sea Level PressureIn, Max VisibilityMiles, Mean VisibilityMiles, Min VisibilityMiles, Max Wind SpeedMPH, Mean Wind SpeedMPH, Max Gust SpeedMPH,PrecipitationIn, CloudCover, Events, WindDirDegrees
2013-12-1,59,43,27,35,30,25,92,60,28,30.36,30.20,30.04,10,9,6,8,1,12,0.00,3,,239
2013-12-2,60,48,36,39,37,34,92,68,44,30.01,29.91,29.84,10,9,7,6,1,9,0.00,5,,87
2013-12-3,58,46,33,45,39,32,96,74,51,30.00,29.95,29.88,10,9,7,10,3,14,T,6,Rain,190
2013-12-4,64,59,53,56,51,45,93,82,71,30.10,30.04,29.99,10,8,3,10,3,13,T,7,Fog-Rain,182
2013-12-5,67,61,55,63,59,53,100,91,81,30.15,30.09,30.05,10,5,0,18,7,24,0.03,8,Fog-Rain,215
2013-12-6,79,72,65,63,62,61,87,71,54,30.08,30.02,29.98,10,10,10,28,14,36,T,6,,212
2013-12-7,69,56,42,63,43,30,96,81,65,30.46,30.27,30.01,10,10,4,18,11,24,0.11,8,Rain,34
2013-12-8,42,38,33,34,31,26,100,79,57,30.47,30.40,30.30,10,5,1,17,8,22,0.05,8,Rain,40
2013-12-9,46,40,34,45,39,32,100,95,89,30.27,30.15,30.07,7,2,0,10,3,13,0.17,8,Fog-Rain,242
2013-12-10,48,38,28,45,39,23,100,75,50,30.34,30.06,29.93,10,6,0,12,3,17,0.47,6,Fog-Rain,356
2013-12-11,49,37,24,27,24,21,92,64,36,30.47,30.37,30.30,10,10,10,12,3,14,0.00,2,Fog,235
2013-12-12,44,35,25,27,19,11,92,60,27,30.43,30.36,30.29,10,10,10,12,2,16,0.00,1,,338
2013-12-13,52,38,23,28,21,17,81,54,26,30.41,30.34,30.29,10,10,10,13,3,16,0.00,3,,219
2013-12-14,47,43,38,41,35,25,100,73,45,30.30,30.04,29.79,10,6,0,14,5,20,0.85,8,Fog-Rain,67
2013-12-15,54,44,34,42,35,25,100,73,46,30.08,29.86,29.74,10,6,0,13,5,21,0.03,5,Fog-Rain,276
2013-12-16,54,41,28,34,30,25,92,67,41,30.19,30.13,30.08,10,10,10,12,4,14,0.00,2,,220
2013-12-17,60,48,35,37,34,31,89,63,37,30.13,30.04,29.89,10,10,10,18,7,24,T,3,Rain,228
2013-12-18,49,40,31,35,21,14,79,52,24,30.30,30.21,30.04,10,10,10,13,3,20,0.00,0,,302
2013-12-19,62,46,30,28,23,20,69,46,22,30.34,30.28,30.24,10,10,10,22,8,26,0.00,3,,216
2013-12-20,67,55,43,50,43,30,83,65,46,30.26,30.20,30.13,10,10,10,17,8,21,0.00,6,,222
2013-12-21,74,62,50,64,55,46,87,72,57,30.17,30.10,30.05,10,9,7,21,9,30,0.00,6,,203
2013-12-22,78,71,64,65,63,60,93,75,56,30.14,30.06,30.02,10,9,2,26,14,35,0.28,7,Rain,202
2013-12-23,68,58,47,65,58,37,96,88,80,30.15,30.07,30.01,10,6,1,22,8,30,1.95,8,Rain,236
2013-12-24,47,38,29,36,26,11,70,55,40,30.46,30.27,30.14,10,10,10,13,7,21,T,4,,359
2013-12-25,40,32,23,17,12,8,68,48,27,30.56,30.48,30.42,10,10,10,12,3,16,0.00,1,,52
2013-12-26,53,39,24,29,25,18,85,59,32,30.40,30.33,30.26,10,10,7,8,1,10,0.03,5,Rain,291
2013-12-27,52,39,26,26,21,18,81,54,26,30.47,30.42,30.38,10,10,10,8,1,12,0.00,3,,31
2013-12-28,59,42,25,33,26,22,85,55,25,30.42,30.33,30.17,10,10,9,9,1,12,0.00,5,,233
2013-12-29,63,53,43,61,47,29,96,69,41,30.13,29.85,29.71,10,5,1,22,7,31,1.94,7,Rain,234
2013-12-30,53,44,35,42,38,33,100,77,54,30.15,30.04,29.94,10,8,0,9,2,14,0.00,6,Fog,331
2013-12-31,51,42,32,35,28,20,92,61,29,30.36,30.25,30.13,10,10,9,13,4,20,T,6,Rain,283